Accord, Massachusetts
Current Conditions -  °F | °C
As of 3:39 AM on Friday 28 Nov 2014 (Local Time) from KBOS Reporting Station
Light Snow Light Snow  
Wind Chill: 23°   Ceiling: 1200
Heat Index: 30°   Visibility: 1mi
Dew Point: 27°   Wind: 8mph
Humidity: 86%   Direction: 330°NNW
Pressure: 29.99"   Gusts: NA
Location:  42.17°N, 70.88°W
Report Text: KBOS 280839Z 33007KT 1SM -SN BR BKN012 BKN017 OVC048 M01/M03 A2999 RMK AO2 SFC VIS 4 P0001
Loading
Personal Weather Stations






























Interactive Weather Map New forecast layout! Learn more

10-Day Weather Forecast

Advertisements
Track Severe Weather on mobile